METAR Reports From Nearby Airports

 

KLUD - Decatur, Texas, USA
Distance from Wildwood: WsPdWs 5mi, 8km
Aktualizacja: Dec 07, 2019 8:35pm
Bezchmurnie
Bezchmurnie
 Wiatr z PdWs
Wiatr: PdWs 7 mph , 11 km/h
Temperatura: 52°F , 11°C
Punkt Rosy: 37°F , 3°C
Wilgotność: 58%
Ciśnienie: 30.13 inHg , 1020.3 hPa
Clouds: Bezchmurnie
Visibility: 10 miles , 16 km
2019/12/08 02:35 KLUD 080235Z AUTO 14006KT 10SM CLR 11/03 A3013 RMK AO2 T01100031
KXBP - Bridgeport, Texas, USA
Distance from Wildwood: ZdPdZa 11mi, 18km
Aktualizacja: Dec 07, 2019 8:35pm
Bezchmurnie
Bezchmurnie
 Wiatr z PdPdWs
Wiatr: PdPdWs 6 mph , 9 km/h
Temperatura: 52°F , 11°C
Punkt Rosy: 37°F , 3°C
Wilgotność: 58%
Ciśnienie: 30.14 inHg , 1020.7 hPa
Clouds: Bezchmurnie
Visibility: 10 miles , 16 km
2019/12/08 02:35 KXBP 080235Z AUTO 15005KT 10SM CLR 11/03 A3014 RMK AO2 T01060033
 
K0F2 - Bowie, Texas, USA
Distance from Wildwood: PnPnZd 24mi, 39km
Aktualizacja: Dec 07, 2019 8:35pm
Bezchmurnie
Bezchmurnie
 Wiatr z PdPdWs
Wiatr: PdPdWs 6 mph , 9 km/h
Temperatura: 52°F , 11°C
Punkt Rosy: 39°F , 4°C
Wilgotność: 62%
Ciśnienie: 30.12 inHg , 1020 hPa
Clouds: Bezchmurnie
Visibility: 10 miles , 16 km
2019/12/08 02:35 K0F2 080235Z AUTO 15005KT 10SM CLR 11/04 A3012 RMK AO2 T01070042
KDTO - Denton, Texas, USA
Distance from Wildwood: Ws 27mi, 44km
Aktualizacja: Dec 07, 2019 7:53pm
Bezchmurnie
Bezchmurnie
 Wiatr z PdPdWs
Wiatr: PdPdWs 5 mph , 7 km/h
Temperatura: 46°F , 8°C
Wind Chill: 44°F , 7°C
Punkt Rosy: 37°F , 3°C
Wilgotność: 71%
Ciśnienie: 30.16 inHg , 1021.3 hPa
Clouds: Bezchmurnie
Visibility: 10 miles , 16 km
2019/12/08 01:53 KDTO 080153Z 15004KT 10SM CLR 08/03 A3016 RMK AO2 SLP212 T00830033
 
KAFW - Ft Worth/Allianc, Texas, USA
Distance from Wildwood: PdWs 29mi, 46km
Aktualizacja: Dec 07, 2019 7:53pm
Few Clouds
Few Clouds
 Wiatr z PdPdWs
Wiatr: PdPdWs 5 mph , 7 km/h
Temperatura: 54°F , 12°C
Punkt Rosy: 37°F , 3°C
Wilgotność: 54%
Ciśnienie: 30.15 inHg , 1021 hPa
Clouds: Few Clouds
Visibility: 10 miles , 16 km
Cloud details: Few Clouds 25000 ft
2019/12/08 01:53 KAFW 080153Z 15004KT 10SM FEW250 12/03 A3015 RMK AO2 SLP213 T01220033
KFTW - Fort Worth, Texas, USA
Distance from Wildwood: PdPdWs 34mi, 55km
Aktualizacja: Dec 07, 2019 7:53pm
Bezchmurnie
Bezchmurnie
 Wiatr z PdWs
Wiatr: PdWs 6 mph , 9 km/h
Temperatura: 54°F , 12°C
Punkt Rosy: 39°F , 4°C
Wilgotność: 58%
Ciśnienie: 30.15 inHg , 1021 hPa
Clouds: Bezchmurnie
Visibility: 10 miles , 16 km
2019/12/08 01:53 KFTW 080153Z 14005KT 10SM CLR 12/04 A3015 RMK AO2 SLP211 T01170039
 
KNFW - Fort Worth Nas, Texas, USA
Distance from Wildwood: PdPdWs 36mi, 58km
Aktualizacja: Dec 07, 2019 4:52pm
NOT Current
Mostly Cloudy
Mostly Cloudy
 Wiatr z WsPdWs
Wiatr: WsPdWs 5 mph , 7 km/h
Temperatura: 63°F , 17°C
Punkt Rosy: 36°F , 2°C
Wilgotność: 37%
Ciśnienie: 30.17 inHg , 1021.7 hPa
Clouds: Mostly Cloudy
Visibility: 10 miles , 16 km
Cloud details: Few Clouds 22000 ft
Mostly Cloudy 30000 ft
2019/12/07 22:52 KNFW 072252Z 11004KT 10SM FEW220 BKN300 17/02 A3017 RMK SLP199 T01730022 VISNO N
KGLE - Gainesville, Texas, USA
Distance from Wildwood: PnWs 38mi, 61km
Aktualizacja: Dec 07, 2019 8:35pm
Bezchmurnie
Bezchmurnie
 Wiatr z PdWs
Wiatr: PdWs 5 mph , 7 km/h
Temperatura: 48°F , 9°C
Wind Chill: 46°F , 8°C
Punkt Rosy: 36°F , 2°C
Wilgotność: 62%
Ciśnienie: 30.15 inHg , 1021 hPa
Clouds: Bezchmurnie
Visibility: 10 miles , 16 km
2019/12/08 02:35 KGLE 080235Z AUTO 14004KT 10SM CLR 09/02 A3015 RMK AO2 T00850023
 
KMWL - Mineral Wells, Texas, USA
Distance from Wildwood: PdZd 41mi, 65km
Aktualizacja: Dec 07, 2019 7:53pm
Bezchmurnie
Bezchmurnie
 Wiatr z PdWs
Wiatr: PdWs 9 mph , 15 km/h
Temperatura: 48°F , 9°C
Wind Chill: 44°F , 7°C
Punkt Rosy: 37°F , 3°C
Wilgotność: 66%
Ciśnienie: 30.12 inHg , 1020 hPa
Clouds: Bezchmurnie
Visibility: 10 miles , 16 km
2019/12/08 01:53 KMWL 080153Z AUTO 14008KT 10SM CLR 09/03 A3012 RMK AO2 SLP201 T00940033
KDFW - Dallas/Ft Worth, Texas, USA
Distance from Wildwood: WsPdWs 45mi, 73km
Aktualizacja: Dec 07, 2019 7:53pm
Few Clouds
Few Clouds
 Wiatr z PdWs
Wiatr: PdWs 6 mph , 9 km/h
Temperatura: 52°F , 11°C
Punkt Rosy: 41°F , 5°C
Wilgotność: 67%
Ciśnienie: 30.14 inHg , 1020.7 hPa
Clouds: Few Clouds
Visibility: 10 miles , 16 km
Cloud details: Few Clouds 30000 ft
2019/12/08 01:53 KDFW 080153Z 14005KT 10SM FEW300 11/05 A3014 RMK AO2 SLP207 T01110050